createdAt,value
2022-11-28T00:01:40.120Z,67432.44
2022-11-28T00:04:08.129Z,67426.13
2022-11-28T00:06:50.171Z,67423.28
2022-11-28T00:09:21.780Z,67428.50
2022-11-28T00:11:49.928Z,67423.28
2022-11-28T00:14:18.873Z,67421.03
2022-11-28T00:16:47.512Z,67417.31
2022-11-28T00:19:15.021Z,67414.84
2022-11-28T00:21:42.680Z,67419.91
2022-11-28T00:24:10.357Z,67422.38
2022-11-28T00:26:40.285Z,67427.44
2022-11-28T00:29:08.714Z,67427.03
2022-11-28T00:31:42.778Z,67423.66
2022-11-28T00:34:12.917Z,67422.53
2022-11-28T00:36:40.662Z,67413.56
2022-11-28T00:39:07.981Z,67413.72
2022-11-28T00:41:35.718Z,67419.72
2022-11-28T00:44:03.099Z,67418.78
2022-11-28T00:46:30.746Z,67420.47
2022-11-28T00:48:59.333Z,67414.50
2022-11-28T00:51:29.834Z,67414.84
2022-11-28T00:53:59.586Z,67417.66
2022-11-28T00:56:30.215Z,67412.59
2022-11-28T00:58:58.426Z,67412.25
2022-11-28T01:01:32.078Z,67424.97
2022-11-28T01:04:01.784Z,67429.09
2022-11-28T01:06:32.670Z,67423.88
2022-11-28T01:09:02.427Z,67421.81
2022-11-28T01:11:30.145Z,67427.44
2022-11-28T01:14:00.030Z,67420.69
2022-11-28T01:16:28.712Z,67425.91
2022-11-28T01:18:56.204Z,67429.28
2022-11-28T01:21:23.994Z,67430.06
2022-11-28T01:23:51.482Z,67429.50
2022-11-28T01:26:21.743Z,67423.88
2022-11-28T01:28:49.075Z,67422.38
2022-11-28T01:31:19.009Z,67422.72
2022-11-28T01:33:46.818Z,67431.53
2022-11-28T01:36:14.859Z,67424.97
2022-11-28T01:38:43.098Z,67415.25
2022-11-28T01:41:11.823Z,67415.97
2022-11-28T01:43:56.764Z,67419.91
2022-11-28T01:46:24.250Z,67413.72
2022-11-28T01:48:53.638Z,67416.72
2022-11-28T01:51:21.394Z,67411.09
2022-11-28T01:53:48.898Z,67410.34
2022-11-28T01:56:24.832Z,67410.00
2022-11-28T01:58:57.034Z,67405.47
2022-11-28T02:01:25.805Z,67410.34
2022-11-28T02:03:54.808Z,67407.53
2022-11-28T02:06:24.255Z,67403.59
2022-11-28T02:08:55.656Z,67400.41
2022-11-28T02:11:31.961Z,67404.38
2022-11-28T02:14:30.200Z,67402.44
2022-11-28T02:17:04.106Z,67408.44
2022-11-28T02:19:43.591Z,67406.56
2022-11-28T02:22:19.805Z,67405.84
2022-11-28T02:24:57.982Z,67401.34
2022-11-28T02:27:38.911Z,67405.44
2022-11-28T02:30:12.801Z,67399.09
2022-11-28T02:32:49.264Z,67403.59
2022-11-28T02:35:35.315Z,67402.06
2022-11-28T02:38:13.272Z,67391.78
2022-11-28T02:40:59.455Z,67392.91
2022-11-28T02:43:53.191Z,67391.78
2022-11-28T02:46:34.357Z,67386.69
2022-11-28T02:49:07.337Z,67387.28
2022-11-28T02:51:43.560Z,67387.63
2022-11-28T02:58:23.492Z,67382.75
2022-11-28T03:00:52.050Z,67379.75
2022-11-28T03:03:47.183Z,67369.09
2022-11-28T03:06:23.699Z,67375.44
2022-11-28T03:09:25.048Z,67375.44
2022-11-28T03:12:26.054Z,67373.56
2022-11-28T03:15:00.569Z,67367.94
2022-11-28T03:17:38.367Z,67362.72
2022-11-28T03:20:23.820Z,67358.56
2022-11-28T03:23:22.486Z,67356.09
2022-11-28T03:26:11.486Z,67348.44
2022-11-28T03:28:49.972Z,67344.50
2022-11-28T03:31:25.103Z,67343.94
2022-11-28T03:33:58.199Z,67345.63
2022-11-28T03:36:34.459Z,67349.72
2022-11-28T03:39:19.592Z,67341.34
2022-11-28T03:41:59.196Z,67338.88
2022-11-28T03:44:32.017Z,67340.00
2022-11-28T03:47:02.459Z,67332.69
2022-11-28T03:53:54.539Z,67336.41
2022-11-28T03:56:41.182Z,67332.13
2022-11-28T03:59:34.335Z,67332.50
2022-11-28T04:02:20.252Z,67335.66
2022-11-28T04:05:02.858Z,67317.72
2022-11-28T04:07:53.984Z,67317.72
2022-11-28T04:10:44.029Z,67319.53
2022-11-28T04:13:14.458Z,67315.81
2022-11-28T04:16:08.082Z,67316.94
2022-11-28T04:18:47.802Z,67319.31
2022-11-28T04:21:41.422Z,67311.31
2022-11-28T04:24:14.534Z,67313.91
2022-11-28T04:26:48.064Z,67309.63
2022-11-28T04:29:20.881Z,67311.66
2022-11-28T04:31:50.198Z,67314.47
2022-11-28T04:34:20.425Z,67306.03
2022-11-28T04:36:49.706Z,67305.13
2022-11-28T04:39:23.408Z,67302.88
2022-11-28T04:42:00.097Z,67301.19
2022-11-28T04:44:53.546Z,67300.63
2022-11-28T04:47:22.557Z,67296.91
2022-11-28T04:49:50.305Z,67295.00
2022-11-28T04:52:36.531Z,67297.63
2022-11-28T04:55:13.137Z,67290.13
2022-11-28T04:57:45.055Z,67291.63
2022-11-28T05:00:18.723Z,67288.81
2022-11-28T05:02:50.398Z,67283.97
2022-11-28T05:05:25.501Z,67296.47
2022-11-28T05:07:53.549Z,67292.00
2022-11-28T05:10:21.123Z,67287.69
2022-11-28T05:12:48.480Z,67290.50
2022-11-28T05:15:19.333Z,67294.25
2022-11-28T05:17:47.230Z,67288.81
2022-11-28T05:20:15.020Z,67290.50
2022-11-28T05:22:42.436Z,67296.13
2022-11-28T05:25:09.984Z,67292.19
2022-11-28T05:27:37.557Z,67294.78
2022-11-28T05:30:06.606Z,67292.75
2022-11-28T05:32:34.153Z,67301.34
2022-11-28T05:35:01.443Z,67297.63
2022-11-28T05:37:29.020Z,67296.13
2022-11-28T05:39:56.338Z,67292.75
2022-11-28T05:42:23.843Z,67294.78
2022-11-28T05:44:51.452Z,67293.88
2022-11-28T05:47:18.764Z,67291.63
2022-11-28T05:49:47.039Z,67297.81
2022-11-28T05:52:14.414Z,67303.78
2022-11-28T05:54:41.780Z,67301.19
2022-11-28T05:57:09.280Z,67300.41
2022-11-28T05:59:36.706Z,67299.50
2022-11-28T06:02:04.395Z,67293.88
2022-11-28T06:04:32.183Z,67293.31
2022-11-28T06:06:59.618Z,67295.94
2022-11-28T06:09:26.956Z,67303.78
2022-11-28T06:11:54.263Z,67303.44
2022-11-28T06:14:21.587Z,67310.34
2022-11-28T06:16:48.988Z,67308.72
2022-11-28T06:19:16.344Z,67312.09
2022-11-28T06:21:43.924Z,67319.19
2022-11-28T06:24:11.468Z,67327.41
2022-11-28T06:26:38.823Z,67325.38
2022-11-28T06:29:06.586Z,67330.44
2022-11-28T06:31:34.410Z,67334.19
2022-11-28T06:34:01.755Z,67331.00
2022-11-28T06:36:30.719Z,67338.13
2022-11-28T06:38:58.193Z,67338.88
2022-11-28T06:41:25.906Z,67347.47
2022-11-28T06:43:53.347Z,67340.78
2022-11-28T06:46:22.680Z,67351.63
2022-11-28T06:48:52.003Z,67355.19
2022-11-28T06:51:20.362Z,67354.84
2022-11-28T06:53:48.255Z,67353.50
2022-11-28T06:56:17.182Z,67355.19
2022-11-28T06:58:45.777Z,67356.31
2022-11-28T07:01:20.505Z,67360.59
2022-11-28T07:03:48.740Z,67359.69
2022-11-28T07:06:18.146Z,67359.13
2022-11-28T07:08:46.388Z,67363.63
2022-11-28T07:11:22.439Z,67366.09
2022-11-28T07:13:51.493Z,67362.72
2022-11-28T07:16:22.518Z,67373.00
2022-11-28T07:18:50.827Z,67369.81
2022-11-28T07:21:18.944Z,67370.94
2022-11-28T07:23:49.675Z,67369.09
2022-11-28T07:26:20.034Z,67377.84
2022-11-28T07:28:48.857Z,67373.97
2022-11-28T07:31:18.646Z,67376.03
2022-11-28T07:33:48.227Z,67377.72
2022-11-28T07:36:18.816Z,67383.91
2022-11-28T07:38:48.190Z,67380.16
2022-11-28T07:41:16.645Z,67385.94
2022-11-28T07:43:46.337Z,67386.69
2022-11-28T07:46:17.301Z,67391.22
2022-11-28T07:48:45.314Z,67392.91
2022-11-28T07:51:14.694Z,67387.47
2022-11-28T07:53:43.166Z,67392.31
2022-11-28T07:56:15.170Z,67394.38
2022-11-28T07:58:44.878Z,67398.31
2022-11-28T08:01:24.246Z,67394.56
2022-11-28T08:03:54.185Z,67401.34
2022-11-28T08:06:25.724Z,67401.53
2022-11-28T08:08:54.278Z,67405.06
2022-11-28T08:11:24.472Z,67409.03
2022-11-28T08:13:55.024Z,67406.97
2022-11-28T08:16:28.080Z,67408.31
2022-11-28T08:18:56.317Z,67415.41
2022-11-28T08:21:33.505Z,67422.16
2022-11-28T08:24:02.937Z,67427.81
2022-11-28T08:26:32.282Z,67427.81
2022-11-28T08:29:01.459Z,67433.44
2022-11-28T08:31:33.033Z,67433.44
2022-11-28T08:34:03.598Z,67436.25
2022-11-28T08:36:31.563Z,67428.22
2022-11-28T08:39:22.971Z,67428.91
2022-11-28T08:41:51.679Z,67427.44
2022-11-28T08:44:18.971Z,67431.31
2022-11-28T08:46:46.343Z,67433.94
2022-11-28T08:49:13.797Z,67430.41
2022-11-28T08:51:42.641Z,67436.97
2022-11-28T08:54:10.186Z,67436.59
2022-11-28T08:56:37.728Z,67429.69
2022-11-28T08:59:07.275Z,67443.00
2022-11-28T09:01:35.218Z,67443.00
2022-11-28T09:04:04.583Z,67439.63
2022-11-28T09:06:32.681Z,67448.97
2022-11-28T09:09:01.842Z,67452.38
2022-11-28T09:11:29.359Z,67456.53
2022-11-28T09:13:57.051Z,67460.81
2022-11-28T09:16:27.161Z,67456.53
2022-11-28T09:18:57.594Z,67453.13
2022-11-28T09:21:25.826Z,67456.72
2022-11-28T09:23:55.965Z,67452.41
2022-11-28T09:26:25.370Z,67470.03
2022-11-28T09:28:53.831Z,67466.28
2022-11-28T09:31:22.846Z,67472.66
2022-11-28T09:33:50.516Z,67472.47
2022-11-28T09:36:21.626Z,67476.22
2022-11-28T09:38:49.804Z,67485.38
2022-11-28T09:41:39.143Z,67477.91
2022-11-28T09:44:34.033Z,67479.25
2022-11-28T09:47:06.758Z,67482.81
2022-11-28T09:49:46.850Z,67489.94
2022-11-28T09:52:34.893Z,67484.31
2022-11-28T09:55:23.924Z,67486.56
2022-11-28T09:57:53.510Z,67482.41
2022-11-28T10:00:24.678Z,67481.31
2022-11-28T10:03:16.572Z,67486.00
2022-11-28T10:05:56.345Z,67480.94
2022-11-28T10:08:43.162Z,67489.75
2022-11-28T10:11:39.891Z,67489.53
2022-11-28T10:14:19.835Z,67496.28
2022-11-28T10:17:13.544Z,67495.38
2022-11-28T10:19:55.434Z,67491.63
2022-11-28T10:22:40.635Z,67495.56
2022-11-28T10:25:35.743Z,67513.41
2022-11-28T10:28:24.272Z,67507.75
2022-11-28T10:31:00.023Z,67508.16
2022-11-28T10:33:37.135Z,67518.25
2022-11-28T10:36:05.096Z,67520.34
2022-11-28T10:38:34.304Z,67525.03
2022-11-28T10:41:07.646Z,67528.59
2022-11-28T10:43:49.561Z,67526.72
2022-11-28T10:46:26.209Z,67523.94
2022-11-28T10:49:42.211Z,67528.81
2022-11-28T10:52:23.960Z,67529.53
2022-11-28T10:54:57.472Z,67526.34
2022-11-28T10:57:33.615Z,67546.44
2022-11-28T11:00:15.153Z,67538.75
2022-11-28T11:02:55.883Z,67536.50
2022-11-28T11:05:28.963Z,67537.06
2022-11-28T11:08:02.653Z,67529.75
2022-11-28T11:10:43.121Z,67521.44
2022-11-28T11:13:16.006Z,67542.53
2022-11-28T11:15:46.021Z,67547.75
2022-11-28T11:18:31.711Z,67537.25
2022-11-28T11:21:19.555Z,67548.91
2022-11-28T11:23:48.312Z,67551.16
2022-11-28T11:26:33.034Z,67551.94
2022-11-28T11:29:02.628Z,67554.72
2022-11-28T11:31:32.856Z,67540.84
2022-11-28T11:34:14.502Z,67550.59
2022-11-28T11:36:42.160Z,67553.41
2022-11-28T11:39:15.313Z,67556.22
2022-11-28T11:41:51.660Z,67557.91
2022-11-28T11:44:19.098Z,67566.38
2022-11-28T11:47:04.098Z,67559.59
2022-11-28T11:50:02.059Z,67563.38
2022-11-28T11:52:29.459Z,67569.19
2022-11-28T11:54:56.833Z,67566.16
2022-11-28T11:57:34.986Z,67560.72
2022-11-28T12:00:14.872Z,67572.56
2022-11-28T12:03:11.632Z,67537.19
2022-11-28T12:06:13.226Z,67566.16
2022-11-28T12:08:50.750Z,67566.94
2022-11-28T12:11:32.288Z,67573.91
2022-11-28T12:14:14.354Z,67590.81
2022-11-28T12:16:56.682Z,67586.09
2022-11-28T12:19:37.690Z,67595.88
2022-11-28T12:22:16.273Z,67590.59
2022-11-28T12:25:08.314Z,67595.47
2022-11-28T12:28:06.287Z,67606.41
2022-11-28T12:30:46.823Z,67621.03
2022-11-28T12:33:39.375Z,67604.13
2022-11-28T12:36:22.724Z,67604.69
2022-11-28T12:39:19.163Z,67588.34
2022-11-28T12:42:09.337Z,67584.63
2022-11-28T12:45:23.732Z,67599.97
2022-11-28T12:48:10.386Z,67596.97
2022-11-28T12:50:45.513Z,67595.69
2022-11-28T12:53:46.680Z,67587.78
2022-11-28T12:56:38.749Z,67592.28
2022-11-28T12:59:23.014Z,67589.06
2022-11-28T13:02:24.813Z,67584.22
2022-11-28T13:05:01.618Z,67583.06
2022-11-28T13:07:32.034Z,67572.94
2022-11-28T13:10:08.859Z,67566.38
2022-11-28T13:12:48.709Z,67575.94
2022-11-28T13:15:39.327Z,67579.69
2022-11-28T13:18:15.951Z,67567.50
2022-11-28T13:20:49.510Z,67578.41
2022-11-28T13:23:47.804Z,67565.44
2022-11-28T13:26:21.596Z,67564.13
2022-11-28T13:28:58.379Z,67571.78
2022-11-28T13:31:33.830Z,67568.78
2022-11-28T13:34:01.783Z,67565.59
2022-11-28T13:39:54.059Z,67561.66
2022-11-28T13:45:36.432Z,67562.97
2022-11-28T13:51:33.941Z,67549.25
2022-11-28T13:54:20.334Z,67549.66
2022-11-28T13:57:19.053Z,67543.47
2022-11-28T13:59:52.437Z,67546.44
2022-11-28T14:02:48.378Z,67550.19
2022-11-28T14:05:33.894Z,67532.91
2022-11-28T14:08:03.203Z,67523.34
2022-11-28T14:11:05.680Z,67525.44
2022-11-28T14:13:47.887Z,67532.00
2022-11-28T14:16:48.295Z,67530.09
2022-11-28T14:19:27.336Z,67544.97
2022-11-28T14:22:19.969Z,67537.06
2022-11-28T14:25:01.439Z,67520.16
2022-11-28T14:27:39.607Z,67514.31
2022-11-28T14:30:36.827Z,67506.66
2022-11-28T14:33:19.008Z,67499.50
2022-11-28T14:35:50.119Z,67500.09
2022-11-28T14:38:31.006Z,67499.88
2022-11-28T14:41:06.740Z,67499.47
2022-11-28T14:43:46.412Z,67496.50
2022-11-28T14:46:30.925Z,67490.84
2022-11-28T14:48:59.151Z,67507.56
2022-11-28T14:51:45.697Z,67496.50
2022-11-28T14:54:37.583Z,67492.56
2022-11-28T14:57:30.838Z,67489.75
2022-11-28T15:00:03.920Z,67490.84
2022-11-28T15:02:56.246Z,67488.59
2022-11-28T15:05:42.142Z,67487.50
2022-11-28T15:08:27.752Z,67492.00
2022-11-28T15:11:17.727Z,67494.81
2022-11-28T15:14:04.818Z,67493.69
2022-11-28T15:16:36.569Z,67496.28
2022-11-28T15:19:28.783Z,67490.84
2022-11-28T15:21:56.913Z,67493.69
2022-11-28T15:24:30.776Z,67495.38
2022-11-28T15:27:19.186Z,67493.47
2022-11-28T15:29:58.273Z,67488.81
2022-11-28T15:32:28.473Z,67490.09
2022-11-28T15:35:01.641Z,67486.91
2022-11-28T15:37:33.333Z,67489.53
2022-11-28T15:40:04.466Z,67485.25
2022-11-28T15:42:37.248Z,67489.53
2022-11-28T15:45:30.834Z,67486.00
2022-11-28T15:47:59.105Z,67488.59
2022-11-28T15:50:29.465Z,67482.06
2022-11-28T15:53:02.329Z,67485.81
2022-11-28T15:55:34.114Z,67487.28
2022-11-28T15:58:16.781Z,67482.41
2022-11-28T16:00:47.428Z,67481.31
2022-11-28T16:03:21.175Z,67478.31
2022-11-28T16:05:51.839Z,67487.28
2022-11-28T16:08:30.219Z,67483.75
2022-11-28T16:10:59.981Z,67484.66
2022-11-28T16:13:29.525Z,67490.84
2022-11-28T16:16:00.065Z,67482.63
2022-11-28T16:18:29.359Z,67483.75
2022-11-28T16:20:59.542Z,67482.63
2022-11-28T16:23:34.467Z,67483.56
2022-11-28T16:26:29.533Z,67485.25
2022-11-28T16:29:19.809Z,67480.56
2022-11-28T16:31:50.030Z,67487.50
2022-11-28T16:34:44.479Z,67482.06
2022-11-28T16:37:12.706Z,67484.66
2022-11-28T16:39:40.376Z,67488.03
2022-11-28T16:42:16.716Z,67488.78
2022-11-28T16:44:44.737Z,67484.66
2022-11-28T16:47:30.587Z,67483.19
2022-11-28T16:50:32.703Z,67486.34
2022-11-28T16:53:00.191Z,67485.81
2022-11-28T16:55:27.521Z,67487.84
2022-11-28T16:58:03.853Z,67482.41
2022-11-28T17:00:31.269Z,67482.41
2022-11-28T17:02:58.691Z,67488.03
2022-11-28T17:05:26.057Z,67492.72
2022-11-28T17:07:53.762Z,67488.81
2022-11-28T17:10:22.068Z,67487.69
2022-11-28T17:12:49.659Z,67486.00
2022-11-28T17:15:20.267Z,67492.34
2022-11-28T17:17:48.194Z,67488.03
2022-11-28T17:20:15.609Z,67496.28
2022-11-28T17:22:45.553Z,67488.81
2022-11-28T17:25:18.419Z,67486.91
2022-11-28T17:27:47.896Z,67497.44
2022-11-28T17:30:17.506Z,67471.88
2022-11-28T17:32:47.151Z,67489.75
2022-11-28T17:35:19.935Z,67490.28
2022-11-28T17:37:47.557Z,67487.69
2022-11-28T17:40:33.167Z,67486.91
2022-11-28T17:43:01.566Z,67488.59
2022-11-28T17:45:34.754Z,67487.69
2022-11-28T17:48:02.157Z,67490.84
2022-11-28T17:50:30.739Z,67491.78
2022-11-28T17:52:58.436Z,67493.69
2022-11-28T17:55:25.860Z,67496.66
2022-11-28T17:57:54.197Z,67498.75
2022-11-28T18:00:21.785Z,67493.31
2022-11-28T18:02:49.821Z,67493.13
2022-11-28T18:05:17.842Z,67498.00
2022-11-28T18:07:46.252Z,67493.69
2022-11-28T18:10:13.739Z,67500.78
2022-11-28T18:12:41.572Z,67499.09
2022-11-28T18:15:10.730Z,67494.81
2022-11-28T18:17:38.875Z,67489.59
2022-11-28T18:20:07.150Z,67492.41
2022-11-28T18:22:34.802Z,67495.56
2022-11-28T18:25:02.787Z,67501.94
2022-11-28T18:27:30.182Z,67497.81
2022-11-28T18:29:57.926Z,67511.28
2022-11-28T18:32:25.686Z,67504.75
2022-11-28T18:34:52.959Z,67501.56
2022-11-28T18:37:20.368Z,67517.69
2022-11-28T18:39:49.304Z,67514.91
2022-11-28T18:42:18.419Z,67513.19
2022-11-28T18:44:45.788Z,67516.78
2022-11-28T18:47:13.384Z,67523.53
2022-11-28T18:49:40.823Z,67520.34
2022-11-28T18:52:08.791Z,67519.59
2022-11-28T18:54:38.527Z,67515.09
2022-11-28T18:57:09.344Z,67510.59
2022-11-28T18:59:37.529Z,67513.19
2022-11-28T19:02:05.059Z,67506.44
2022-11-28T19:04:33.088Z,67510.00
2022-11-28T19:07:01.655Z,67503.81
2022-11-28T19:09:30.912Z,67500.66
2022-11-28T19:11:58.346Z,67508.34
2022-11-28T19:14:25.991Z,67506.28
2022-11-28T19:16:54.177Z,67508.91
2022-11-28T19:19:22.212Z,67505.72
2022-11-28T19:21:50.110Z,67516.56
2022-11-28T19:24:18.853Z,67505.72
2022-11-28T19:26:47.387Z,67515.66
2022-11-28T19:29:16.322Z,67516.94
2022-11-28T19:31:44.206Z,67512.28
2022-11-28T19:34:17.478Z,67515.31
2022-11-28T19:36:48.417Z,67522.19
2022-11-28T19:39:19.077Z,67526.72
2022-11-28T19:41:46.996Z,67524.09
2022-11-28T19:44:14.420Z,67513.41
2022-11-28T19:46:42.127Z,67513.19
2022-11-28T19:49:14.367Z,67510.94
2022-11-28T19:51:41.745Z,67516.78
2022-11-28T19:54:09.163Z,67518.84
2022-11-28T19:56:36.539Z,67507.06
2022-11-28T19:59:03.985Z,67505.31
2022-11-28T20:01:31.920Z,67492.75
2022-11-28T20:03:59.837Z,67494.03
2022-11-28T20:06:29.903Z,67497.63
2022-11-28T20:09:06.044Z,67486.91
2022-11-28T20:11:35.823Z,67483.19
2022-11-28T20:14:11.627Z,67475.50
2022-11-28T20:16:40.664Z,67479.81
2022-11-28T20:19:11.777Z,67473.97
2022-11-28T20:21:40.395Z,67483.91
2022-11-28T20:24:10.832Z,67473.81
2022-11-28T20:26:41.971Z,67486.34
2022-11-28T20:29:13.878Z,67479.59
2022-11-28T20:31:46.848Z,67473.97
2022-11-28T20:34:17.864Z,67471.16
2022-11-28T20:36:46.206Z,67473.19
2022-11-28T20:39:13.767Z,67471.72
2022-11-28T20:41:41.158Z,67473.97
2022-11-28T20:44:09.325Z,67479.03
2022-11-28T20:46:36.883Z,67475.66
2022-11-28T20:49:06.083Z,67472.28
2022-11-28T20:51:35.002Z,67478.13
2022-11-28T20:54:04.865Z,67474.72
2022-11-28T20:57:05.173Z,67479.59
2022-11-28T20:59:26.940Z,67480.16
2022-11-28T21:01:54.690Z,67495.75
2022-11-28T21:04:22.214Z,67509.81
2022-11-28T21:06:49.915Z,67507.56
2022-11-28T21:09:20.927Z,67499.31
2022-11-28T21:11:58.468Z,67507.56
2022-11-28T21:14:28.091Z,67507.56
2022-11-28T21:16:56.853Z,67503.25
2022-11-28T21:19:24.610Z,67496.84
2022-11-28T21:21:52.126Z,67490.28
2022-11-28T21:24:19.676Z,67479.19
2022-11-28T21:26:53.116Z,67498.19
2022-11-28T21:29:22.893Z,67489.94
2022-11-28T21:31:50.953Z,67496.28
2022-11-28T21:34:19.396Z,67483.38
2022-11-28T21:36:47.205Z,67486.00
2022-11-28T21:39:18.871Z,67491.78
2022-11-28T21:41:46.884Z,67490.28
2022-11-28T21:44:14.167Z,67493.13
2022-11-28T21:46:41.546Z,67497.63
2022-11-28T21:49:09.021Z,67503.63
2022-11-28T21:51:41.378Z,67504.75
2022-11-28T21:54:11.399Z,67502.69
2022-11-28T21:56:39.509Z,67501.56
2022-11-28T21:59:07.138Z,67507.00
2022-11-28T22:01:34.775Z,67499.50
2022-11-28T22:04:03.697Z,67502.69
2022-11-28T22:06:32.480Z,67507.75
2022-11-28T22:09:08.763Z,67509.25
2022-11-28T22:11:38.902Z,67508.91
2022-11-28T22:14:06.833Z,67505.88
2022-11-28T22:16:37.594Z,67500.28
2022-11-28T22:19:05.831Z,67504.41
2022-11-28T22:21:51.808Z,67509.81
2022-11-28T22:24:21.427Z,67511.16
2022-11-28T22:26:49.519Z,67506.66
2022-11-28T22:29:18.127Z,67502.34
2022-11-28T22:31:45.661Z,67506.84
2022-11-28T22:34:13.622Z,67506.06
2022-11-28T22:36:41.315Z,67506.44
2022-11-28T22:39:10.833Z,67507.19
2022-11-28T22:41:38.454Z,67503.81
2022-11-28T22:44:05.798Z,67508.69
2022-11-28T22:46:34.046Z,67507.56
2022-11-28T22:49:02.290Z,67506.06
2022-11-28T22:51:31.449Z,67505.50
2022-11-28T22:54:01.101Z,67507.94
2022-11-28T22:56:41.213Z,67500.66
2022-11-28T22:59:13.996Z,67506.06
2022-11-28T23:01:43.639Z,67510.72
2022-11-28T23:04:11.983Z,67503.25
2022-11-28T23:06:40.121Z,67505.88
2022-11-28T23:09:09.571Z,67495.78
2022-11-28T23:11:38.953Z,67504.53
2022-11-28T23:14:07.394Z,67499.31
2022-11-28T23:16:37.480Z,67502.69
2022-11-28T23:19:16.588Z,67509.81
2022-11-28T23:21:46.942Z,67501.41
2022-11-28T23:24:19.913Z,67502.34
2022-11-28T23:26:49.067Z,67508.53
2022-11-28T23:29:17.105Z,67503.44
2022-11-28T23:31:47.047Z,67510.38
2022-11-28T23:34:14.655Z,67508.16
2022-11-28T23:36:46.953Z,67512.84
2022-11-28T23:39:22.442Z,67516.56
2022-11-28T23:41:50.318Z,67512.84
2022-11-28T23:44:18.485Z,67515.66
2022-11-28T23:46:46.828Z,67515.66
2022-11-28T23:49:14.338Z,67511.69
2022-11-28T23:51:42.296Z,67516.72
2022-11-28T23:54:10.901Z,67508.91
2022-11-28T23:56:39.985Z,67512.06
2022-11-28T23:59:09.061Z,67501.97
